sensor_id;sensor_type;location;lat;lon;timestamp;pressure;altitude;pressure_sealevel;temperature;humidity
35202;BME280;20553;47.544;7.586;2022-08-07T00:02:32;98676.75;;;16.93;63.43
35202;BME280;20553;47.544;7.586;2022-08-07T00:07:46;98686.19;;;16.87;63.18
35202;BME280;20553;47.544;7.586;2022-08-07T00:13:04;98672.66;;;16.76;62.75
35202;BME280;20553;47.544;7.586;2022-08-07T00:18:29;98672.41;;;16.56;62.70
35202;BME280;20553;47.544;7.586;2022-08-07T00:23:35;98673.63;;;16.63;60.86
35202;BME280;20553;47.544;7.586;2022-08-07T00:28:42;98667.47;;;16.50;61.88
35202;BME280;20553;47.544;7.586;2022-08-07T00:33:58;98667.84;;;16.45;61.38
35202;BME280;20553;47.544;7.586;2022-08-07T00:39:03;98662.41;;;16.34;60.96
35202;BME280;20553;47.544;7.586;2022-08-07T00:44:07;98652.81;;;16.30;60.41
35202;BME280;20553;47.544;7.586;2022-08-07T00:49:13;98650.94;;;16.19;60.18
35202;BME280;20553;47.544;7.586;2022-08-07T00:54:38;98659.38;;;16.03;60.17
35202;BME280;20553;47.544;7.586;2022-08-07T00:59:43;98661.91;;;15.93;60.42
35202;BME280;20553;47.544;7.586;2022-08-07T01:04:52;98655.75;;;15.80;60.37
35202;BME280;20553;47.544;7.586;2022-08-07T01:10:02;98648.31;;;15.71;60.09
35202;BME280;20553;47.544;7.586;2022-08-07T01:15:14;98653.38;;;15.51;60.79
35202;BME280;20553;47.544;7.586;2022-08-07T01:20:43;98648.03;;;15.38;61.12
35202;BME280;20553;47.544;7.586;2022-08-07T01:26:04;98649.13;;;15.36;60.98
35202;BME280;20553;47.544;7.586;2022-08-07T01:31:16;98646.56;;;15.21;61.98
35202;BME280;20553;47.544;7.586;2022-08-07T01:36:25;98639.16;;;15.12;62.53
35202;BME280;20553;47.544;7.586;2022-08-07T01:41:45;98641.56;;;15.04;62.67
35202;BME280;20553;47.544;7.586;2022-08-07T01:47:11;98651.41;;;14.92;63.43
35202;BME280;20553;47.544;7.586;2022-08-07T01:52:39;98649.28;;;14.72;64.22
35202;BME280;20553;47.544;7.586;2022-08-07T01:57:59;98648.41;;;14.71;64.36
35202;BME280;20553;47.544;7.586;2022-08-07T02:03:27;98645.94;;;14.55;65.33
35202;BME280;20553;47.544;7.586;2022-08-07T02:08:53;98655.53;;;14.46;65.65
35202;BME280;20553;47.544;7.586;2022-08-07T02:14:05;98650.38;;;14.43;65.30
35202;BME280;20553;47.544;7.586;2022-08-07T02:19:13;98652.94;;;14.45;64.62
35202;BME280;20553;47.544;7.586;2022-08-07T02:24:42;98644.84;;;14.32;65.49
35202;BME280;20553;47.544;7.586;2022-08-07T02:29:54;98646.38;;;14.23;65.98
35202;BME280;20553;47.544;7.586;2022-08-07T02:35:10;98637.44;;;14.23;65.82
35202;BME280;20553;47.544;7.586;2022-08-07T02:40:24;98634.38;;;14.14;66.72
35202;BME280;20553;47.544;7.586;2022-08-07T02:45:40;98639.97;;;13.99;67.42
35202;BME280;20553;47.544;7.586;2022-08-07T02:51:10;98642.97;;;13.94;67.25
35202;BME280;20553;47.544;7.586;2022-08-07T02:56:40;98642.97;;;13.94;67.45
35202;BME280;20553;47.544;7.586;2022-08-07T03:01:48;98628.31;;;13.85;67.61
35202;BME280;20553;47.544;7.586;2022-08-07T03:06:59;98641.00;;;13.70;68.69
35202;BME280;20553;47.544;7.586;2022-08-07T03:12:15;98636.16;;;13.63;68.94
35202;BME280;20553;47.544;7.586;2022-08-07T03:17:39;98635.78;;;13.54;69.78
35202;BME280;20553;47.544;7.586;2022-08-07T03:22:58;98636.63;;;13.42;71.07
35202;BME280;20553;47.544;7.586;2022-08-07T03:28:06;98629.94;;;13.48;70.36
35202;BME280;20553;47.544;7.586;2022-08-07T03:33:36;98628.03;;;13.50;69.86
35202;BME280;20553;47.544;7.586;2022-08-07T03:38:46;98635.09;;;13.38;71.03
35202;BME280;20553;47.544;7.586;2022-08-07T03:43:52;98636.13;;;13.35;71.70
35202;BME280;20553;47.544;7.586;2022-08-07T03:49:06;98629.22;;;13.31;71.87
35202;BME280;20553;47.544;7.586;2022-08-07T03:54:16;98616.47;;;13.20;73.13
35202;BME280;20553;47.544;7.586;2022-08-07T03:59:43;98625.41;;;13.21;75.18
35202;BME280;20553;47.544;7.586;2022-08-07T04:05:08;98630.69;;;13.22;75.52
35202;BME280;20553;47.544;7.586;2022-08-07T04:10:13;98634.28;;;13.09;76.41
35202;BME280;20553;47.544;7.586;2022-08-07T04:15:23;98634.38;;;13.07;77.56
35202;BME280;20553;47.544;7.586;2022-08-07T04:20:30;98640.53;;;13.09;77.40
35202;BME280;20553;47.544;7.586;2022-08-07T04:25:39;98646.00;;;13.08;75.95
35202;BME280;20553;47.544;7.586;2022-08-07T04:30:48;98651.47;;;13.06;76.96
35202;BME280;20553;47.544;7.586;2022-08-07T04:36:08;98663.97;;;13.07;76.74
35202;BME280;20553;47.544;7.586;2022-08-07T04:41:14;98666.66;;;13.07;76.02
35202;BME280;20553;47.544;7.586;2022-08-07T04:46:34;98678.16;;;13.09;75.16
35202;BME280;20553;47.544;7.586;2022-08-07T04:52:12;98675.00;;;13.17;73.65
35202;BME280;20553;47.544;7.586;2022-08-07T04:57:28;98695.22;;;13.37;72.18
35202;BME280;20553;47.544;7.586;2022-08-07T05:03:03;98691.63;;;13.51;71.65
35202;BME280;20553;47.544;7.586;2022-08-07T05:08:35;98679.78;;;13.81;69.61
35202;BME280;20553;47.544;7.586;2022-08-07T05:14:11;98689.13;;;14.02;68.16
35202;BME280;20553;47.544;7.586;2022-08-07T05:19:43;98680.75;;;14.20;66.70
35202;BME280;20553;47.544;7.586;2022-08-07T05:24:53;98676.97;;;14.35;65.45
35202;BME280;20553;47.544;7.586;2022-08-07T05:30:02;98673.94;;;14.53;64.21
35202;BME280;20553;47.544;7.586;2022-08-07T05:35:09;98673.44;;;14.60;63.55
35202;BME280;20553;47.544;7.586;2022-08-07T05:40:18;98677.84;;;14.87;61.79
35202;BME280;20553;47.544;7.586;2022-08-07T05:45:24;98685.88;;;15.13;60.48
35202;BME280;20553;47.544;7.586;2022-08-07T05:50:51;98691.94;;;15.16;61.12
35202;BME280;20553;47.544;7.586;2022-08-07T05:55:59;98683.88;;;15.40;60.59
35202;BME280;20553;47.544;7.586;2022-08-07T06:01:13;98692.56;;;15.81;58.82
35202;BME280;20553;47.544;7.586;2022-08-07T06:06:23;98690.47;;;16.09;57.90
35202;BME280;20553;47.544;7.586;2022-08-07T06:11:34;98697.19;;;16.39;56.62
35202;BME280;20553;47.544;7.586;2022-08-07T06:16:43;98693.78;;;16.59;55.78
35202;BME280;20553;47.544;7.586;2022-08-07T06:21:55;98693.19;;;16.78;55.05
35202;BME280;20553;47.544;7.586;2022-08-07T06:27:22;98702.94;;;17.15;54.08
35202;BME280;20553;47.544;7.586;2022-08-07T06:32:48;98694.56;;;17.29;53.55
35202;BME280;20553;47.544;7.586;2022-08-07T06:37:53;98694.63;;;17.50;53.05
35202;BME280;20553;47.544;7.586;2022-08-07T06:43:07;98687.03;;;17.88;51.52
35202;BME280;20553;47.544;7.586;2022-08-07T06:48:42;98694.69;;;18.57;49.17
35202;BME280;20553;47.544;7.586;2022-08-07T06:53:55;98698.97;;;19.52;47.41
35202;BME280;20553;47.544;7.586;2022-08-07T06:59:35;98697.34;;;20.96;43.48
35202;BME280;20553;47.544;7.586;2022-08-07T07:05:01;98690.97;;;21.71;41.16
35202;BME280;20553;47.544;7.586;2022-08-07T07:10:07;98701.19;;;21.87;40.48
35202;BME280;20553;47.544;7.586;2022-08-07T07:15:20;98698.41;;;22.15;40.00
35202;BME280;20553;47.544;7.586;2022-08-07T07:20:40;98682.16;;;22.75;39.15
35202;BME280;20553;47.544;7.586;2022-08-07T07:25:51;98674.25;;;23.17;38.20
35202;BME280;20553;47.544;7.586;2022-08-07T07:31:25;98684.16;;;23.60;37.33
35202;BME280;20553;47.544;7.586;2022-08-07T07:36:44;98684.00;;;23.78;36.93
35202;BME280;20553;47.544;7.586;2022-08-07T07:41:56;98675.22;;;24.34;36.34
35202;BME280;20553;47.544;7.586;2022-08-07T07:47:23;98672.81;;;24.22;36.54
35202;BME280;20553;47.544;7.586;2022-08-07T07:52:31;98674.56;;;25.29;35.01
35202;BME280;20553;47.544;7.586;2022-08-07T07:57:38;98682.97;;;25.19;35.13
35202;BME280;20553;47.544;7.586;2022-08-07T08:03:02;98670.59;;;25.23;35.27
35202;BME280;20553;47.544;7.586;2022-08-07T08:08:12;98671.50;;;25.86;34.57
35202;BME280;20553;47.544;7.586;2022-08-07T08:13:41;98666.47;;;26.60;33.82
35202;BME280;20553;47.544;7.586;2022-08-07T08:19:01;98655.53;;;27.64;31.96
35202;BME280;20553;47.544;7.586;2022-08-07T08:24:30;98654.03;;;27.98;31.78
35202;BME280;20553;47.544;7.586;2022-08-07T08:30:13;98649.66;;;27.89;31.62
35202;BME280;20553;47.544;7.586;2022-08-07T08:35:26;98646.63;;;28.70;30.64
35202;BME280;20553;47.544;7.586;2022-08-07T08:40:52;98648.59;;;29.11;30.12
35202;BME280;20553;47.544;7.586;2022-08-07T08:46:07;98641.00;;;29.61;29.42
35202;BME280;20553;47.544;7.586;2022-08-07T08:51:25;98639.06;;;29.49;29.58
35202;BME280;20553;47.544;7.586;2022-08-07T08:56:52;98631.31;;;31.26;27.86
35202;BME280;20553;47.544;7.586;2022-08-07T09:02:14;98629.19;;;32.19;26.28
35202;BME280;20553;47.544;7.586;2022-08-07T09:07:46;98624.13;;;32.84;25.98
35202;BME280;20553;47.544;7.586;2022-08-07T09:13:08;98615.72;;;32.73;26.02
35202;BME280;20553;47.544;7.586;2022-08-07T09:18:35;98620.00;;;33.49;25.79
35202;BME280;20553;47.544;7.586;2022-08-07T09:24:02;98611.72;;;34.22;25.39
35202;BME280;20553;47.544;7.586;2022-08-07T09:29:40;98611.59;;;34.71;24.91
35202;BME280;20553;47.544;7.586;2022-08-07T09:35:27;98604.41;;;35.22;24.66
35202;BME280;20553;47.544;7.586;2022-08-07T09:41:08;98604.38;;;36.03;23.93
35202;BME280;20553;47.544;7.586;2022-08-07T09:46:34;98602.22;;;36.05;24.11
35202;BME280;20553;47.544;7.586;2022-08-07T09:52:10;98611.81;;;37.16;22.21
35202;BME280;20553;47.544;7.586;2022-08-07T10:04:13;98596.81;;;37.67;22.04
35202;BME280;20553;47.544;7.586;2022-08-07T10:10:02;98590.53;;;38.31;21.44
35202;BME280;20553;47.544;7.586;2022-08-07T10:15:55;98578.03;;;39.24;20.57
35202;BME280;20553;47.544;7.586;2022-08-07T10:21:23;98572.91;;;37.10;22.62
35202;BME280;20553;47.544;7.586;2022-08-07T10:27:07;98575.69;;;37.76;21.94
35202;BME280;20553;47.544;7.586;2022-08-07T10:32:45;98558.34;;;38.66;21.23
35202;BME280;20553;47.544;7.586;2022-08-07T10:38:36;98552.34;;;38.52;21.29
35202;BME280;20553;47.544;7.586;2022-08-07T10:44:01;98553.00;;;39.86;20.84
35202;BME280;20553;47.544;7.586;2022-08-07T10:49:21;98540.78;;;41.24;18.66
35202;BME280;20553;47.544;7.586;2022-08-07T10:54:56;98541.38;;;41.21;19.10
35202;BME280;20553;47.544;7.586;2022-08-07T11:00:07;98533.66;;;40.72;19.60
35202;BME280;20553;47.544;7.586;2022-08-07T11:05:51;98530.88;;;40.31;20.22
35202;BME280;20553;47.544;7.586;2022-08-07T11:11:05;98528.25;;;42.41;17.85
35202;BME280;20553;47.544;7.586;2022-08-07T11:16:19;98514.38;;;43.46;17.03
35202;BME280;20553;47.544;7.586;2022-08-07T11:21:45;98516.44;;;44.49;15.86
35202;BME280;20553;47.544;7.586;2022-08-07T11:27:01;98508.69;;;44.55;15.40
35202;BME280;20553;47.544;7.586;2022-08-07T11:32:11;98496.91;;;44.20;15.97
35202;BME280;20553;47.544;7.586;2022-08-07T11:37:55;98492.00;;;42.63;17.15
35202;BME280;20553;47.544;7.586;2022-08-07T11:43:23;98485.38;;;42.73;17.45
35202;BME280;20553;47.544;7.586;2022-08-07T11:49:15;98483.06;;;39.38;20.05
35202;BME280;20553;47.544;7.586;2022-08-07T11:54:59;98482.34;;;40.05;19.46
35202;BME280;20553;47.544;7.586;2022-08-07T12:00:18;98478.03;;;40.89;18.67
35202;BME280;20553;47.544;7.586;2022-08-07T12:05:45;98477.84;;;40.50;18.89
35202;BME280;20553;47.544;7.586;2022-08-07T12:10:57;98469.66;;;37.15;21.92
35202;BME280;20553;47.544;7.586;2022-08-07T12:16:33;98471.28;;;37.33;22.20
35202;BME280;20553;47.544;7.586;2022-08-07T12:21:49;98462.28;;;36.82;22.71
35202;BME280;20553;47.544;7.586;2022-08-07T12:27:17;98464.06;;;36.15;23.98
35202;BME280;20553;47.544;7.586;2022-08-07T12:32:53;98444.53;;;35.64;24.70
35202;BME280;20553;47.544;7.586;2022-08-07T12:38:02;98450.03;;;39.50;21.28
35202;BME280;20553;47.544;7.586;2022-08-07T12:43:22;98454.94;;;43.42;17.47
35202;BME280;20553;47.544;7.586;2022-08-07T12:48:59;98447.94;;;42.72;18.13
35202;BME280;20553;47.544;7.586;2022-08-07T12:54:33;98453.91;;;45.12;16.25
35202;BME280;20553;47.544;7.586;2022-08-07T12:59:49;98447.22;;;46.03;15.37
35202;BME280;20553;47.544;7.586;2022-08-07T13:05:17;98440.06;;;42.94;17.54
35202;BME280;20553;47.544;7.586;2022-08-07T13:11:01;98440.72;;;39.09;20.91
35202;BME280;20553;47.544;7.586;2022-08-07T13:16:28;98434.09;;;42.76;17.54
35202;BME280;20553;47.544;7.586;2022-08-07T13:21:40;98426.63;;;43.86;16.60
35202;BME280;20553;47.544;7.586;2022-08-07T13:27:13;98422.84;;;41.93;18.07
35202;BME280;20553;47.544;7.586;2022-08-07T13:32:31;98408.59;;;40.04;19.94
35202;BME280;20553;47.544;7.586;2022-08-07T13:37:51;98412.56;;;40.84;19.59
35202;BME280;20553;47.544;7.586;2022-08-07T13:43:09;98407.09;;;41.58;18.77
35202;BME280;20553;47.544;7.586;2022-08-07T13:48:19;98393.22;;;37.48;22.37
35202;BME280;20553;47.544;7.586;2022-08-07T13:53:39;98389.22;;;40.08;20.57
35202;BME280;20553;47.544;7.586;2022-08-07T13:59:10;98383.06;;;37.69;22.50
35202;BME280;20553;47.544;7.586;2022-08-07T14:04:19;98375.25;;;37.12;22.73
35202;BME280;20553;47.544;7.586;2022-08-07T14:09:33;98385.44;;;35.96;24.21
35202;BME280;20553;47.544;7.586;2022-08-07T14:15:05;98372.56;;;34.81;25.50
35202;BME280;20553;47.544;7.586;2022-08-07T14:20:19;98370.38;;;33.06;28.05
35202;BME280;20553;47.544;7.586;2022-08-07T14:25:46;98366.84;;;33.10;28.22
35202;BME280;20553;47.544;7.586;2022-08-07T14:30:58;98361.34;;;37.49;23.00
35202;BME280;20553;47.544;7.586;2022-08-07T14:36:08;98359.78;;;39.23;21.20
35202;BME280;20553;47.544;7.586;2022-08-07T14:41:25;98356.34;;;43.18;17.58
35202;BME280;20553;47.544;7.586;2022-08-07T14:46:54;98354.81;;;46.07;14.91
35202;BME280;20553;47.544;7.586;2022-08-07T14:52:20;98351.75;;;42.84;16.70
35202;BME280;20553;47.544;7.586;2022-08-07T14:57:33;98353.25;;;42.58;17.27
35202;BME280;20553;47.544;7.586;2022-08-07T15:03:04;98339.97;;;42.10;17.18
35202;BME280;20553;47.544;7.586;2022-08-07T15:08:28;98344.38;;;42.21;17.33
35202;BME280;20553;47.544;7.586;2022-08-07T15:13:39;98347.50;;;38.45;20.92
35202;BME280;20553;47.544;7.586;2022-08-07T15:18:54;98339.88;;;39.81;20.13
35202;BME280;20553;47.544;7.586;2022-08-07T15:24:11;98327.25;;;40.74;19.23
35202;BME280;20553;47.544;7.586;2022-08-07T15:29:40;98326.69;;;36.86;22.67
35202;BME280;20553;47.544;7.586;2022-08-07T15:35:12;98316.72;;;36.45;23.76
35202;BME280;20553;47.544;7.586;2022-08-07T15:40:39;98322.72;;;35.93;24.24
35202;BME280;20553;47.544;7.586;2022-08-07T15:46:15;98333.22;;;36.25;23.20
35202;BME280;20553;47.544;7.586;2022-08-07T15:51:43;98317.69;;;34.64;25.43
35202;BME280;20553;47.544;7.586;2022-08-07T15:57:02;98334.94;;;32.03;29.80
35202;BME280;20553;47.544;7.586;2022-08-07T16:02:09;98326.47;;;30.65;32.15
35202;BME280;20553;47.544;7.586;2022-08-07T16:07:18;98324.91;;;29.25;34.71
35202;BME280;20553;47.544;7.586;2022-08-07T16:12:56;98322.78;;;29.27;34.71
35202;BME280;20553;47.544;7.586;2022-08-07T16:18:38;98307.44;;;28.85;35.39
35202;BME280;20553;47.544;7.586;2022-08-07T16:23:59;98313.78;;;28.79;35.60
35202;BME280;20553;47.544;7.586;2022-08-07T16:29:26;98319.13;;;29.00;34.63
35202;BME280;20553;47.544;7.586;2022-08-07T16:34:58;98322.31;;;28.97;34.99
35202;BME280;20553;47.544;7.586;2022-08-07T16:41:05;98318.69;;;31.70;31.04
35202;BME280;20553;47.544;7.586;2022-08-07T16:52:41;98323.63;;;37.42;23.46
35202;BME280;20553;47.544;7.586;2022-08-07T16:58:03;98337.84;;;35.80;25.61
35202;BME280;20553;47.544;7.586;2022-08-07T17:03:19;98340.75;;;33.30;28.62
35202;BME280;20553;47.544;7.586;2022-08-07T17:08:58;98332.81;;;33.92;27.62
35202;BME280;20553;47.544;7.586;2022-08-07T17:14:24;98339.38;;;33.09;28.67
35202;BME280;20553;47.544;7.586;2022-08-07T17:19:43;98340.44;;;31.16;31.34
35202;BME280;20553;47.544;7.586;2022-08-07T17:25:15;98340.06;;;30.15;32.67
35202;BME280;20553;47.544;7.586;2022-08-07T17:30:25;98327.44;;;29.34;34.47
35202;BME280;20553;47.544;7.586;2022-08-07T17:35:38;98353.94;;;28.33;36.71
35202;BME280;20553;47.544;7.586;2022-08-07T17:41:06;98356.31;;;27.44;38.74
35202;BME280;20553;47.544;7.586;2022-08-07T17:46:40;98370.66;;;27.18;39.75
35202;BME280;20553;47.544;7.586;2022-08-07T17:52:05;98380.56;;;26.39;41.51
35202;BME280;20553;47.544;7.586;2022-08-07T17:57:25;98377.94;;;26.01;42.66
35202;BME280;20553;47.544;7.586;2022-08-07T18:02:56;98388.41;;;25.68;43.24
35202;BME280;20553;47.544;7.586;2022-08-07T18:08:13;98391.47;;;25.35;44.25
35202;BME280;20553;47.544;7.586;2022-08-07T18:13:44;98396.97;;;25.50;43.99
35202;BME280;20553;47.544;7.586;2022-08-07T18:18:54;98389.69;;;25.19;45.13
35202;BME280;20553;47.544;7.586;2022-08-07T18:24:28;98392.50;;;25.11;45.55
35202;BME280;20553;47.544;7.586;2022-08-07T18:29:56;98401.47;;;24.73;46.33
35202;BME280;20553;47.544;7.586;2022-08-07T18:35:24;98412.84;;;24.54;46.90
35202;BME280;20553;47.544;7.586;2022-08-07T18:40:52;98430.56;;;24.27;47.80
35202;BME280;20553;47.544;7.586;2022-08-07T18:46:21;98441.28;;;23.88;49.43
35202;BME280;20553;47.544;7.586;2022-08-07T18:51:39;98456.19;;;23.53;51.11
35202;BME280;20553;47.544;7.586;2022-08-07T18:57:20;98469.66;;;23.22;53.14
35202;BME280;20553;47.544;7.586;2022-08-07T19:02:42;98470.97;;;23.01;54.23
35202;BME280;20553;47.544;7.586;2022-08-07T19:08:01;98483.03;;;22.82;55.07
35202;BME280;20553;47.544;7.586;2022-08-07T19:13:18;98489.63;;;22.63;56.07
35202;BME280;20553;47.544;7.586;2022-08-07T19:18:44;98484.09;;;22.47;56.51
35202;BME280;20553;47.544;7.586;2022-08-07T19:23:55;98499.53;;;22.30;57.99
35202;BME280;20553;47.544;7.586;2022-08-07T19:29:05;98489.84;;;22.09;59.02
35202;BME280;20553;47.544;7.586;2022-08-07T19:34:30;98501.81;;;21.90;59.83
35202;BME280;20553;47.544;7.586;2022-08-07T19:39:46;98509.47;;;21.86;60.45
35202;BME280;20553;47.544;7.586;2022-08-07T19:45:11;98509.56;;;21.77;60.60
35202;BME280;20553;47.544;7.586;2022-08-07T19:50:38;98511.75;;;21.73;60.70
35202;BME280;20553;47.544;7.586;2022-08-07T19:55:53;98501.88;;;21.72;60.82
35202;BME280;20553;47.544;7.586;2022-08-07T20:01:02;98505.06;;;21.67;61.43
35202;BME280;20553;47.544;7.586;2022-08-07T20:06:13;98506.47;;;21.71;61.22
35202;BME280;20553;47.544;7.586;2022-08-07T20:11:34;98497.16;;;21.82;61.09
35202;BME280;20553;47.544;7.586;2022-08-07T20:17:09;98492.47;;;21.93;60.22
35202;BME280;20553;47.544;7.586;2022-08-07T20:22:20;98490.22;;;21.88;60.67
35202;BME280;20553;47.544;7.586;2022-08-07T20:27:33;98493.38;;;21.75;60.94
35202;BME280;20553;47.544;7.586;2022-08-07T20:32:56;98492.38;;;21.58;62.65
35202;BME280;20553;47.544;7.586;2022-08-07T20:38:05;98495.03;;;21.50;63.33
35202;BME280;20553;47.544;7.586;2022-08-07T20:43:11;98509.34;;;21.34;63.77
35202;BME280;20553;47.544;7.586;2022-08-07T20:48:26;98508.94;;;21.11;64.68
35202;BME280;20553;47.544;7.586;2022-08-07T20:53:37;98502.53;;;20.84;66.50
35202;BME280;20553;47.544;7.586;2022-08-07T20:59:03;98509.81;;;20.66;67.75
35202;BME280;20553;47.544;7.586;2022-08-07T21:04:31;98506.84;;;20.49;69.23
35202;BME280;20553;47.544;7.586;2022-08-07T21:09:37;98515.34;;;20.36;70.32
35202;BME280;20553;47.544;7.586;2022-08-07T21:15:06;98511.13;;;20.14;71.74
35202;BME280;20553;47.544;7.586;2022-08-07T21:20:23;98508.03;;;19.99;73.03
35202;BME280;20553;47.544;7.586;2022-08-07T21:25:52;98504.63;;;19.87;74.13
35202;BME280;20553;47.544;7.586;2022-08-07T21:31:09;98505.50;;;19.78;74.53
35202;BME280;20553;47.544;7.586;2022-08-07T21:36:27;98504.63;;;19.68;74.70
35202;BME280;20553;47.544;7.586;2022-08-07T21:41:45;98506.50;;;19.58;76.05
35202;BME280;20553;47.544;7.586;2022-08-07T21:47:12;98511.81;;;19.49;77.43
35202;BME280;20553;47.544;7.586;2022-08-07T21:52:32;98509.09;;;19.49;77.95
35202;BME280;20553;47.544;7.586;2022-08-07T21:57:52;98509.09;;;19.49;78.69
35202;BME280;20553;47.544;7.586;2022-08-07T22:03:12;98508.34;;;19.47;79.44
35202;BME280;20553;47.544;7.586;2022-08-07T22:08:26;98513.50;;;19.41;79.89
35202;BME280;20553;47.544;7.586;2022-08-07T22:13:37;98512.94;;;19.37;80.39
35202;BME280;20553;47.544;7.586;2022-08-07T22:19:10;98525.38;;;19.30;80.99
35202;BME280;20553;47.544;7.586;2022-08-07T22:24:42;98518.25;;;19.29;80.95
35202;BME280;20553;47.544;7.586;2022-08-07T22:29:57;98523.06;;;19.15;82.61
35202;BME280;20553;47.544;7.586;2022-08-07T22:35:05;98515.06;;;19.04;83.10
35202;BME280;20553;47.544;7.586;2022-08-07T22:40:22;98517.88;;;18.83;84.65
35202;BME280;20553;47.544;7.586;2022-08-07T22:45:52;98521.53;;;18.72;85.08
35202;BME280;20553;47.544;7.586;2022-08-07T22:51:52;98527.34;;;18.58;86.69
35202;BME280;20553;47.544;7.586;2022-08-07T22:57:25;98521.00;;;18.38;87.72
35202;BME280;20553;47.544;7.586;2022-08-07T23:03:21;98526.50;;;18.26;88.83
35202;BME280;20553;47.544;7.586;2022-08-07T23:09:15;98523.31;;;18.12;89.98
35202;BME280;20553;47.544;7.586;2022-08-07T23:15:06;98523.84;;;18.05;91.37
35202;BME280;20553;47.544;7.586;2022-08-07T23:20:41;98517.75;;;18.13;92.17
35202;BME280;20553;47.544;7.586;2022-08-07T23:26:16;98527.19;;;18.19;92.25
35202;BME280;20553;47.544;7.586;2022-08-07T23:31:43;98541.41;;;18.11;92.42
35202;BME280;20553;47.544;7.586;2022-08-07T23:37:47;98541.34;;;18.01;93.04
35202;BME280;20553;47.544;7.586;2022-08-07T23:43:27;98534.81;;;17.83;93.76
35202;BME280;20553;47.544;7.586;2022-08-07T23:49:30;98543.53;;;17.65;95.44
35202;BME280;20553;47.544;7.586;2022-08-07T23:55:01;98543.09;;;17.49;97.01
